Terminal Aerodrome Forecast
Issued by NWS

Home | Current Version | Previous Version | Text Only | Print | Product List | Glossary On
Versions: 1 2 3 4 5 6 7 8 9 10 11 12 13 14 15 16 17
000
FTUS42 KMLB 042337
TAFTIX
TAF
KTIX 042337Z 0500/0524 15012KT P6SM FEW030 SCT050
     FM050100 18006KT P6SM FEW025 SCT250
     FM050900 VRB03KT 4SM BR SCT010 BKN025
     FM051400 18007KT P6SM SCT030=

USA.gov is the U.S. government's official web portal to all federal, state and local government web resources and services.